sensor_id;sensor_type;location;lat;lon;timestamp;P1;durP1;ratioP1;P2;durP2;ratioP2
9700;SDS011;4889;48.620;7.892;2023-05-07T00:00:27;0.60;;;0.20;;
9700;SDS011;4889;48.620;7.892;2023-05-07T00:02:53;0.60;;;0.30;;
9700;SDS011;4889;48.620;7.892;2023-05-07T00:05:18;0.60;;;0.20;;
9700;SDS011;4889;48.620;7.892;2023-05-07T00:07:43;0.60;;;0.20;;
9700;SDS011;4889;48.620;7.892;2023-05-07T00:10:09;0.60;;;0.20;;
9700;SDS011;4889;48.620;7.892;2023-05-07T00:12:35;0.60;;;0.20;;
9700;SDS011;4889;48.620;7.892;2023-05-07T00:15:01;0.60;;;0.20;;
9700;SDS011;4889;48.620;7.892;2023-05-07T00:17:27;0.60;;;0.20;;
9700;SDS011;4889;48.620;7.892;2023-05-07T00:19:52;0.60;;;0.30;;
9700;SDS011;4889;48.620;7.892;2023-05-07T00:22:17;0.60;;;0.20;;
9700;SDS011;4889;48.620;7.892;2023-05-07T00:24:42;0.60;;;0.23;;
9700;SDS011;4889;48.620;7.892;2023-05-07T00:27:08;0.60;;;0.20;;
9700;SDS011;4889;48.620;7.892;2023-05-07T00:29:33;0.60;;;0.30;;
9700;SDS011;4889;48.620;7.892;2023-05-07T00:31:58;0.60;;;0.20;;
9700;SDS011;4889;48.620;7.892;2023-05-07T00:34:23;0.60;;;0.20;;
9700;SDS011;4889;48.620;7.892;2023-05-07T00:36:49;0.60;;;0.20;;
9700;SDS011;4889;48.620;7.892;2023-05-07T00:39:14;0.60;;;0.30;;
9700;SDS011;4889;48.620;7.892;2023-05-07T00:41:39;0.60;;;0.20;;
9700;SDS011;4889;48.620;7.892;2023-05-07T00:44:05;0.60;;;0.20;;
9700;SDS011;4889;48.620;7.892;2023-05-07T00:46:30;0.60;;;0.20;;
9700;SDS011;4889;48.620;7.892;2023-05-07T00:48:55;0.60;;;0.20;;
9700;SDS011;4889;48.620;7.892;2023-05-07T00:51:21;0.60;;;0.20;;
9700;SDS011;4889;48.620;7.892;2023-05-07T00:53:46;0.60;;;0.20;;
9700;SDS011;4889;48.620;7.892;2023-05-07T00:56:12;0.60;;;0.30;;
9700;SDS011;4889;48.620;7.892;2023-05-07T00:58:37;0.60;;;0.20;;
9700;SDS011;4889;48.620;7.892;2023-05-07T01:01:03;0.60;;;0.30;;
9700;SDS011;4889;48.620;7.892;2023-05-07T01:03:28;0.60;;;0.27;;
9700;SDS011;4889;48.620;7.892;2023-05-07T01:05:53;0.60;;;0.20;;
9700;SDS011;4889;48.620;7.892;2023-05-07T01:08:19;1.47;;;1.03;;
9700;SDS011;4889;48.620;7.892;2023-05-07T01:10:45;0.80;;;0.60;;
9700;SDS011;4889;48.620;7.892;2023-05-07T01:13:11;0.60;;;0.20;;
9700;SDS011;4889;48.620;7.892;2023-05-07T01:15:37;0.60;;;0.23;;
9700;SDS011;4889;48.620;7.892;2023-05-07T01:18:03;0.60;;;0.20;;
9700;SDS011;4889;48.620;7.892;2023-05-07T01:20:28;0.70;;;0.57;;
9700;SDS011;4889;48.620;7.892;2023-05-07T01:22:53;0.60;;;0.20;;
9700;SDS011;4889;48.620;7.892;2023-05-07T01:25:19;0.60;;;0.20;;
9700;SDS011;4889;48.620;7.892;2023-05-07T01:27:44;0.60;;;0.20;;
9700;SDS011;4889;48.620;7.892;2023-05-07T01:30:10;0.60;;;0.30;;
9700;SDS011;4889;48.620;7.892;2023-05-07T01:32:48;0.60;;;0.30;;
9700;SDS011;4889;48.620;7.892;2023-05-07T01:35:18;0.60;;;0.20;;
9700;SDS011;4889;48.620;7.892;2023-05-07T01:37:43;0.60;;;0.20;;
9700;SDS011;4889;48.620;7.892;2023-05-07T01:40:09;0.60;;;0.20;;
9700;SDS011;4889;48.620;7.892;2023-05-07T01:42:35;0.80;;;0.30;;
9700;SDS011;4889;48.620;7.892;2023-05-07T01:45:00;0.60;;;0.30;;
9700;SDS011;4889;48.620;7.892;2023-05-07T01:47:25;0.60;;;0.20;;
9700;SDS011;4889;48.620;7.892;2023-05-07T01:49:51;0.60;;;0.20;;
9700;SDS011;4889;48.620;7.892;2023-05-07T01:52:16;0.60;;;0.20;;
9700;SDS011;4889;48.620;7.892;2023-05-07T01:54:42;0.60;;;0.20;;
9700;SDS011;4889;48.620;7.892;2023-05-07T01:57:07;0.60;;;0.20;;
9700;SDS011;4889;48.620;7.892;2023-05-07T01:59:32;0.60;;;0.20;;
9700;SDS011;4889;48.620;7.892;2023-05-07T02:01:58;0.60;;;0.20;;
9700;SDS011;4889;48.620;7.892;2023-05-07T02:04:23;0.60;;;0.20;;
9700;SDS011;4889;48.620;7.892;2023-05-07T02:06:48;0.60;;;0.20;;
9700;SDS011;4889;48.620;7.892;2023-05-07T02:09:13;0.60;;;0.30;;
9700;SDS011;4889;48.620;7.892;2023-05-07T02:11:39;0.60;;;0.20;;
9700;SDS011;4889;48.620;7.892;2023-05-07T02:14:05;0.60;;;0.20;;
9700;SDS011;4889;48.620;7.892;2023-05-07T02:16:30;0.60;;;0.30;;
9700;SDS011;4889;48.620;7.892;2023-05-07T02:18:55;0.60;;;0.20;;
9700;SDS011;4889;48.620;7.892;2023-05-07T02:21:21;0.60;;;0.20;;
9700;SDS011;4889;48.620;7.892;2023-05-07T02:23:46;0.60;;;0.20;;
9700;SDS011;4889;48.620;7.892;2023-05-07T02:26:12;0.60;;;0.20;;
9700;SDS011;4889;48.620;7.892;2023-05-07T02:28:37;0.60;;;0.30;;
9700;SDS011;4889;48.620;7.892;2023-05-07T02:31:05;0.60;;;0.30;;
9700;SDS011;4889;48.620;7.892;2023-05-07T02:33:31;0.60;;;0.20;;
9700;SDS011;4889;48.620;7.892;2023-05-07T02:35:56;0.60;;;0.20;;
9700;SDS011;4889;48.620;7.892;2023-05-07T02:38:21;0.60;;;0.20;;
9700;SDS011;4889;48.620;7.892;2023-05-07T02:40:47;0.60;;;0.20;;
9700;SDS011;4889;48.620;7.892;2023-05-07T02:43:12;0.60;;;0.30;;
9700;SDS011;4889;48.620;7.892;2023-05-07T02:45:37;0.60;;;0.20;;
9700;SDS011;4889;48.620;7.892;2023-05-07T02:48:03;0.60;;;0.20;;
9700;SDS011;4889;48.620;7.892;2023-05-07T02:50:28;0.60;;;0.20;;
9700;SDS011;4889;48.620;7.892;2023-05-07T02:52:53;0.60;;;0.30;;
9700;SDS011;4889;48.620;7.892;2023-05-07T02:55:19;0.60;;;0.20;;
9700;SDS011;4889;48.620;7.892;2023-05-07T02:57:44;0.60;;;0.30;;
9700;SDS011;4889;48.620;7.892;2023-05-07T03:00:10;0.60;;;0.20;;
9700;SDS011;4889;48.620;7.892;2023-05-07T03:02:36;0.60;;;0.20;;
9700;SDS011;4889;48.620;7.892;2023-05-07T03:05:01;0.60;;;0.20;;
9700;SDS011;4889;48.620;7.892;2023-05-07T03:07:26;0.60;;;0.20;;
9700;SDS011;4889;48.620;7.892;2023-05-07T03:09:51;0.60;;;0.30;;
9700;SDS011;4889;48.620;7.892;2023-05-07T03:12:17;0.60;;;0.20;;
9700;SDS011;4889;48.620;7.892;2023-05-07T03:14:42;0.60;;;0.20;;
9700;SDS011;4889;48.620;7.892;2023-05-07T03:17:07;0.60;;;0.20;;
9700;SDS011;4889;48.620;7.892;2023-05-07T03:19:34;0.60;;;0.20;;
9700;SDS011;4889;48.620;7.892;2023-05-07T03:21:59;0.60;;;0.30;;
9700;SDS011;4889;48.620;7.892;2023-05-07T03:24:24;0.60;;;0.20;;
9700;SDS011;4889;48.620;7.892;2023-05-07T03:26:50;0.60;;;0.20;;
9700;SDS011;4889;48.620;7.892;2023-05-07T03:29:15;0.60;;;0.20;;
9700;SDS011;4889;48.620;7.892;2023-05-07T03:31:40;0.60;;;0.20;;
9700;SDS011;4889;48.620;7.892;2023-05-07T03:34:05;0.60;;;0.20;;
9700;SDS011;4889;48.620;7.892;2023-05-07T03:36:30;0.70;;;0.50;;
9700;SDS011;4889;48.620;7.892;2023-05-07T03:38:56;0.60;;;0.30;;
9700;SDS011;4889;48.620;7.892;2023-05-07T03:41:21;0.60;;;0.20;;
9700;SDS011;4889;48.620;7.892;2023-05-07T03:43:46;0.60;;;0.20;;
9700;SDS011;4889;48.620;7.892;2023-05-07T03:46:11;0.60;;;0.20;;
9700;SDS011;4889;48.620;7.892;2023-05-07T03:48:38;0.60;;;0.20;;
9700;SDS011;4889;48.620;7.892;2023-05-07T03:51:04;0.60;;;0.20;;
9700;SDS011;4889;48.620;7.892;2023-05-07T03:53:29;0.60;;;0.20;;
9700;SDS011;4889;48.620;7.892;2023-05-07T03:55:54;0.60;;;0.20;;
9700;SDS011;4889;48.620;7.892;2023-05-07T03:58:19;0.60;;;0.20;;
9700;SDS011;4889;48.620;7.892;2023-05-07T04:00:45;0.60;;;0.20;;
9700;SDS011;4889;48.620;7.892;2023-05-07T04:03:10;0.60;;;0.20;;
9700;SDS011;4889;48.620;7.892;2023-05-07T04:05:35;0.60;;;0.20;;
9700;SDS011;4889;48.620;7.892;2023-05-07T04:08:01;0.60;;;0.20;;
9700;SDS011;4889;48.620;7.892;2023-05-07T04:10:27;0.60;;;0.20;;
9700;SDS011;4889;48.620;7.892;2023-05-07T04:12:53;0.60;;;0.20;;
9700;SDS011;4889;48.620;7.892;2023-05-07T04:15:18;0.60;;;0.20;;
9700;SDS011;4889;48.620;7.892;2023-05-07T04:17:43;0.60;;;0.20;;
9700;SDS011;4889;48.620;7.892;2023-05-07T04:20:09;0.60;;;0.20;;
9700;SDS011;4889;48.620;7.892;2023-05-07T04:22:35;0.60;;;0.20;;
9700;SDS011;4889;48.620;7.892;2023-05-07T04:25:01;0.60;;;0.20;;
9700;SDS011;4889;48.620;7.892;2023-05-07T04:27:26;0.60;;;0.20;;
9700;SDS011;4889;48.620;7.892;2023-05-07T04:29:51;0.60;;;0.20;;
9700;SDS011;4889;48.620;7.892;2023-05-07T04:32:16;0.60;;;0.30;;
9700;SDS011;4889;48.620;7.892;2023-05-07T04:34:42;0.60;;;0.50;;
9700;SDS011;4889;48.620;7.892;2023-05-07T04:37:08;0.60;;;0.20;;
9700;SDS011;4889;48.620;7.892;2023-05-07T04:39:33;1.47;;;0.50;;
9700;SDS011;4889;48.620;7.892;2023-05-07T04:42:00;0.60;;;0.30;;
9700;SDS011;4889;48.620;7.892;2023-05-07T04:44:25;0.60;;;0.20;;
9700;SDS011;4889;48.620;7.892;2023-05-07T04:46:50;0.60;;;0.20;;
9700;SDS011;4889;48.620;7.892;2023-05-07T04:49:16;0.60;;;0.30;;
9700;SDS011;4889;48.620;7.892;2023-05-07T04:51:41;0.60;;;0.20;;
9700;SDS011;4889;48.620;7.892;2023-05-07T04:54:07;0.60;;;0.30;;
9700;SDS011;4889;48.620;7.892;2023-05-07T04:56:33;0.60;;;0.20;;
9700;SDS011;4889;48.620;7.892;2023-05-07T04:58:58;0.60;;;0.20;;
9700;SDS011;4889;48.620;7.892;2023-05-07T05:01:23;0.60;;;0.20;;
9700;SDS011;4889;48.620;7.892;2023-05-07T05:03:48;0.60;;;0.20;;
9700;SDS011;4889;48.620;7.892;2023-05-07T05:06:14;0.57;;;0.27;;
9700;SDS011;4889;48.620;7.892;2023-05-07T05:08:39;0.60;;;0.30;;
9700;SDS011;4889;48.620;7.892;2023-05-07T05:11:04;8.47;;;0.80;;
9700;SDS011;4889;48.620;7.892;2023-05-07T05:13:30;0.50;;;0.20;;
9700;SDS011;4889;48.620;7.892;2023-05-07T05:15:55;0.60;;;0.20;;
9700;SDS011;4889;48.620;7.892;2023-05-07T05:18:20;0.60;;;0.30;;
9700;SDS011;4889;48.620;7.892;2023-05-07T05:20:46;0.60;;;0.20;;
9700;SDS011;4889;48.620;7.892;2023-05-07T05:23:11;0.60;;;0.20;;
9700;SDS011;4889;48.620;7.892;2023-05-07T05:25:36;4.20;;;3.90;;
9700;SDS011;4889;48.620;7.892;2023-05-07T05:28:04;0.60;;;0.30;;
9700;SDS011;4889;48.620;7.892;2023-05-07T05:30:29;0.60;;;0.30;;
9700;SDS011;4889;48.620;7.892;2023-05-07T05:32:54;0.60;;;0.20;;
9700;SDS011;4889;48.620;7.892;2023-05-07T05:35:19;0.60;;;0.30;;
9700;SDS011;4889;48.620;7.892;2023-05-07T05:37:45;0.60;;;0.30;;
9700;SDS011;4889;48.620;7.892;2023-05-07T05:40:10;0.83;;;0.83;;
9700;SDS011;4889;48.620;7.892;2023-05-07T05:42:35;0.60;;;0.30;;
9700;SDS011;4889;48.620;7.892;2023-05-07T05:45:01;0.60;;;0.20;;
9700;SDS011;4889;48.620;7.892;2023-05-07T05:47:26;0.60;;;0.30;;
9700;SDS011;4889;48.620;7.892;2023-05-07T05:49:51;0.60;;;0.20;;
9700;SDS011;4889;48.620;7.892;2023-05-07T05:52:16;0.60;;;0.40;;
9700;SDS011;4889;48.620;7.892;2023-05-07T05:54:42;0.60;;;0.30;;
9700;SDS011;4889;48.620;7.892;2023-05-07T05:57:07;1.40;;;1.30;;
9700;SDS011;4889;48.620;7.892;2023-05-07T05:59:33;0.60;;;0.37;;
9700;SDS011;4889;48.620;7.892;2023-05-07T06:01:58;0.60;;;0.30;;
9700;SDS011;4889;48.620;7.892;2023-05-07T06:04:23;1.17;;;0.97;;
9700;SDS011;4889;48.620;7.892;2023-05-07T06:06:48;3.70;;;0.97;;
9700;SDS011;4889;48.620;7.892;2023-05-07T06:09:14;0.60;;;0.30;;
9700;SDS011;4889;48.620;7.892;2023-05-07T06:11:39;0.60;;;0.20;;
9700;SDS011;4889;48.620;7.892;2023-05-07T06:14:06;0.60;;;0.30;;
9700;SDS011;4889;48.620;7.892;2023-05-07T06:16:31;0.60;;;0.20;;
9700;SDS011;4889;48.620;7.892;2023-05-07T06:18:56;1.87;;;1.77;;
9700;SDS011;4889;48.620;7.892;2023-05-07T06:21:21;0.60;;;0.30;;
9700;SDS011;4889;48.620;7.892;2023-05-07T06:23:46;0.60;;;0.30;;
9700;SDS011;4889;48.620;7.892;2023-05-07T06:26:12;0.60;;;0.30;;
9700;SDS011;4889;48.620;7.892;2023-05-07T06:28:37;0.60;;;0.30;;
9700;SDS011;4889;48.620;7.892;2023-05-07T06:31:15;0.83;;;0.70;;
9700;SDS011;4889;48.620;7.892;2023-05-07T06:33:41;0.60;;;0.20;;
9700;SDS011;4889;48.620;7.892;2023-05-07T06:36:07;0.60;;;0.20;;
9700;SDS011;4889;48.620;7.892;2023-05-07T06:38:32;0.60;;;0.20;;
9700;SDS011;4889;48.620;7.892;2023-05-07T06:40:57;0.60;;;0.20;;
9700;SDS011;4889;48.620;7.892;2023-05-07T06:43:22;0.60;;;0.20;;
9700;SDS011;4889;48.620;7.892;2023-05-07T06:45:48;0.60;;;0.30;;
9700;SDS011;4889;48.620;7.892;2023-05-07T06:48:13;2.70;;;1.07;;
9700;SDS011;4889;48.620;7.892;2023-05-07T06:50:38;0.73;;;0.73;;
9700;SDS011;4889;48.620;7.892;2023-05-07T06:53:04;0.60;;;0.20;;
9700;SDS011;4889;48.620;7.892;2023-05-07T06:55:29;0.60;;;0.30;;
9700;SDS011;4889;48.620;7.892;2023-05-07T06:57:54;1.03;;;0.50;;
9700;SDS011;4889;48.620;7.892;2023-05-07T07:00:19;0.60;;;0.40;;
9700;SDS011;4889;48.620;7.892;2023-05-07T07:02:45;0.60;;;0.30;;
9700;SDS011;4889;48.620;7.892;2023-05-07T07:05:10;0.80;;;0.43;;
9700;SDS011;4889;48.620;7.892;2023-05-07T07:07:35;0.60;;;0.20;;
9700;SDS011;4889;48.620;7.892;2023-05-07T07:10:01;1.00;;;0.60;;
9700;SDS011;4889;48.620;7.892;2023-05-07T07:12:26;1.57;;;0.97;;
9700;SDS011;4889;48.620;7.892;2023-05-07T07:14:51;1.17;;;1.07;;
9700;SDS011;4889;48.620;7.892;2023-05-07T07:17:16;0.70;;;0.50;;
9700;SDS011;4889;48.620;7.892;2023-05-07T07:19:41;0.60;;;0.40;;
9700;SDS011;4889;48.620;7.892;2023-05-07T07:22:07;0.60;;;0.30;;
9700;SDS011;4889;48.620;7.892;2023-05-07T07:24:32;7.30;;;1.63;;
9700;SDS011;4889;48.620;7.892;2023-05-07T07:26:57;2.30;;;0.93;;
9700;SDS011;4889;48.620;7.892;2023-05-07T07:29:22;0.60;;;0.30;;
9700;SDS011;4889;48.620;7.892;2023-05-07T07:31:48;0.90;;;0.73;;
9700;SDS011;4889;48.620;7.892;2023-05-07T07:34:14;1.27;;;1.17;;
9700;SDS011;4889;48.620;7.892;2023-05-07T07:36:40;0.60;;;0.30;;
9700;SDS011;4889;48.620;7.892;2023-05-07T07:39:05;0.60;;;0.30;;
9700;SDS011;4889;48.620;7.892;2023-05-07T07:41:31;0.60;;;0.23;;
9700;SDS011;4889;48.620;7.892;2023-05-07T07:43:56;0.73;;;0.60;;
9700;SDS011;4889;48.620;7.892;2023-05-07T07:46:21;0.60;;;0.20;;
9700;SDS011;4889;48.620;7.892;2023-05-07T07:48:46;0.60;;;0.50;;
9700;SDS011;4889;48.620;7.892;2023-05-07T07:51:12;0.80;;;0.40;;
9700;SDS011;4889;48.620;7.892;2023-05-07T07:53:37;0.60;;;0.33;;
9700;SDS011;4889;48.620;7.892;2023-05-07T07:56:02;3.23;;;1.37;;
9700;SDS011;4889;48.620;7.892;2023-05-07T07:58:27;1.43;;;1.07;;
9700;SDS011;4889;48.620;7.892;2023-05-07T08:00:52;3.13;;;0.30;;
9700;SDS011;4889;48.620;7.892;2023-05-07T08:03:20;2.10;;;1.70;;
9700;SDS011;4889;48.620;7.892;2023-05-07T08:05:46;1.03;;;0.60;;
9700;SDS011;4889;48.620;7.892;2023-05-07T08:08:11;1.37;;;0.87;;
9700;SDS011;4889;48.620;7.892;2023-05-07T08:10:36;2.70;;;1.50;;
9700;SDS011;4889;48.620;7.892;2023-05-07T08:13:03;0.60;;;0.30;;
9700;SDS011;4889;48.620;7.892;2023-05-07T08:15:29;0.60;;;0.30;;
9700;SDS011;4889;48.620;7.892;2023-05-07T08:17:54;2.10;;;1.27;;
9700;SDS011;4889;48.620;7.892;2023-05-07T08:20:22;1.80;;;1.70;;
9700;SDS011;4889;48.620;7.892;2023-05-07T08:22:47;1.13;;;1.03;;
9700;SDS011;4889;48.620;7.892;2023-05-07T08:25:12;0.77;;;0.53;;
9700;SDS011;4889;48.620;7.892;2023-05-07T08:27:38;0.60;;;0.30;;
9700;SDS011;4889;48.620;7.892;2023-05-07T08:30:03;0.80;;;0.50;;
9700;SDS011;4889;48.620;7.892;2023-05-07T08:32:29;0.63;;;0.30;;
9700;SDS011;4889;48.620;7.892;2023-05-07T08:34:54;2.00;;;1.23;;
9700;SDS011;4889;48.620;7.892;2023-05-07T08:37:20;1.20;;;0.50;;
9700;SDS011;4889;48.620;7.892;2023-05-07T08:39:45;0.60;;;0.30;;
9700;SDS011;4889;48.620;7.892;2023-05-07T08:42:11;2.40;;;1.60;;
9700;SDS011;4889;48.620;7.892;2023-05-07T08:44:36;1.63;;;1.07;;
9700;SDS011;4889;48.620;7.892;2023-05-07T08:47:03;3.43;;;2.17;;
9700;SDS011;4889;48.620;7.892;2023-05-07T08:49:31;0.63;;;0.33;;
9700;SDS011;4889;48.620;7.892;2023-05-07T08:51:56;1.23;;;0.50;;
9700;SDS011;4889;48.620;7.892;2023-05-07T08:54:21;0.60;;;0.20;;
9700;SDS011;4889;48.620;7.892;2023-05-07T08:56:48;0.60;;;0.30;;
9700;SDS011;4889;48.620;7.892;2023-05-07T08:59:13;2.97;;;1.03;;
9700;SDS011;4889;48.620;7.892;2023-05-07T09:01:38;1.70;;;0.97;;
9700;SDS011;4889;48.620;7.892;2023-05-07T09:04:04;0.80;;;0.40;;
9700;SDS011;4889;48.620;7.892;2023-05-07T09:06:30;2.13;;;1.80;;
9700;SDS011;4889;48.620;7.892;2023-05-07T09:08:56;0.90;;;0.40;;
9700;SDS011;4889;48.620;7.892;2023-05-07T09:11:23;1.20;;;1.00;;
9700;SDS011;4889;48.620;7.892;2023-05-07T09:13:49;1.00;;;0.50;;
9700;SDS011;4889;48.620;7.892;2023-05-07T09:16:15;0.90;;;0.30;;
9700;SDS011;4889;48.620;7.892;2023-05-07T09:18:41;2.17;;;0.70;;
9700;SDS011;4889;48.620;7.892;2023-05-07T09:21:09;1.40;;;0.73;;
9700;SDS011;4889;48.620;7.892;2023-05-07T09:23:34;1.30;;;0.60;;
9700;SDS011;4889;48.620;7.892;2023-05-07T09:26:00;1.00;;;0.30;;
9700;SDS011;4889;48.620;7.892;2023-05-07T09:28:26;0.93;;;0.30;;
9700;SDS011;4889;48.620;7.892;2023-05-07T09:30:51;1.70;;;0.63;;
9700;SDS011;4889;48.620;7.892;2023-05-07T09:33:16;1.80;;;0.30;;
9700;SDS011;4889;48.620;7.892;2023-05-07T09:35:42;2.30;;;0.30;;
9700;SDS011;4889;48.620;7.892;2023-05-07T09:38:07;2.80;;;0.50;;
9700;SDS011;4889;48.620;7.892;2023-05-07T09:40:32;2.40;;;0.30;;
9700;SDS011;4889;48.620;7.892;2023-05-07T09:43:08;3.53;;;1.17;;
9700;SDS011;4889;48.620;7.892;2023-05-07T09:45:33;4.10;;;0.80;;
9700;SDS011;4889;48.620;7.892;2023-05-07T09:47:59;3.50;;;0.87;;
9700;SDS011;4889;48.620;7.892;2023-05-07T09:50:28;3.87;;;0.70;;
9700;SDS011;4889;48.620;7.892;2023-05-07T09:52:55;3.30;;;0.30;;
9700;SDS011;4889;48.620;7.892;2023-05-07T09:55:21;3.03;;;0.30;;
9700;SDS011;4889;48.620;7.892;2023-05-07T09:57:47;3.17;;;0.30;;
9700;SDS011;4889;48.620;7.892;2023-05-07T10:00:15;3.78;;;0.68;;
9700;SDS011;4889;48.620;7.892;2023-05-07T10:02:40;3.50;;;0.30;;
9700;SDS011;4889;48.620;7.892;2023-05-07T10:05:12;3.53;;;0.43;;
9700;SDS011;4889;48.620;7.892;2023-05-07T10:07:37;4.37;;;0.73;;
9700;SDS011;4889;48.620;7.892;2023-05-07T10:10:03;3.77;;;0.50;;
9700;SDS011;4889;48.620;7.892;2023-05-07T10:12:29;3.67;;;0.30;;
9700;SDS011;4889;48.620;7.892;2023-05-07T10:14:55;4.50;;;0.63;;
9700;SDS011;4889;48.620;7.892;2023-05-07T10:17:21;3.70;;;0.30;;
9700;SDS011;4889;48.620;7.892;2023-05-07T10:19:48;3.60;;;0.40;;
9700;SDS011;4889;48.620;7.892;2023-05-07T10:22:15;3.80;;;0.50;;
9700;SDS011;4889;48.620;7.892;2023-05-07T10:24:41;4.60;;;1.33;;
9700;SDS011;4889;48.620;7.892;2023-05-07T10:27:11;3.70;;;0.40;;
9700;SDS011;4889;48.620;7.892;2023-05-07T10:34:43;3.70;;;0.30;;
9700;SDS011;4889;48.620;7.892;2023-05-07T10:37:09;4.17;;;0.77;;
9700;SDS011;4889;48.620;7.892;2023-05-07T10:39:35;3.90;;;0.50;;
9700;SDS011;4889;48.620;7.892;2023-05-07T10:42:07;3.80;;;0.30;;
9700;SDS011;4889;48.620;7.892;2023-05-07T10:44:32;4.57;;;0.70;;
9700;SDS011;4889;48.620;7.892;2023-05-07T10:47:04;3.77;;;0.30;;
9700;SDS011;4889;48.620;7.892;2023-05-07T10:49:30;3.70;;;0.30;;
9700;SDS011;4889;48.620;7.892;2023-05-07T10:57:35;4.00;;;0.30;;
9700;SDS011;4889;48.620;7.892;2023-05-07T11:00:03;4.10;;;0.30;;
9700;SDS011;4889;48.620;7.892;2023-05-07T11:05:22;4.00;;;0.60;;
9700;SDS011;4889;48.620;7.892;2023-05-07T11:07:54;4.03;;;0.30;;
9700;SDS011;4889;48.620;7.892;2023-05-07T11:10:19;4.50;;;0.60;;
9700;SDS011;4889;48.620;7.892;2023-05-07T11:15:10;5.47;;;1.30;;
9700;SDS011;4889;48.620;7.892;2023-05-07T11:17:55;4.30;;;0.50;;
9700;SDS011;4889;48.620;7.892;2023-05-07T11:20:21;4.28;;;0.30;;
9700;SDS011;4889;48.620;7.892;2023-05-07T11:23:06;5.85;;;0.85;;
9700;SDS011;4889;48.620;7.892;2023-05-07T11:25:31;4.00;;;0.30;;
9700;SDS011;4889;48.620;7.892;2023-05-07T11:28:03;8.63;;;2.80;;
9700;SDS011;4889;48.620;7.892;2023-05-07T11:30:28;4.25;;;0.35;;
9700;SDS011;4889;48.620;7.892;2023-05-07T11:32:54;4.60;;;0.77;;
9700;SDS011;4889;48.620;7.892;2023-05-07T11:35:19;4.28;;;0.30;;
9700;SDS011;4889;48.620;7.892;2023-05-07T11:37:47;5.13;;;1.10;;
9700;SDS011;4889;48.620;7.892;2023-05-07T11:40:13;4.25;;;0.30;;
9700;SDS011;4889;48.620;7.892;2023-05-07T11:42:39;4.38;;;0.52;;
9700;SDS011;4889;48.620;7.892;2023-05-07T11:45:05;5.85;;;1.40;;
9700;SDS011;4889;48.620;7.892;2023-05-07T11:47:31;4.60;;;1.00;;
9700;SDS011;4889;48.620;7.892;2023-05-07T11:49:56;4.15;;;0.35;;
9700;SDS011;4889;48.620;7.892;2023-05-07T11:52:22;4.10;;;0.30;;
9700;SDS011;4889;48.620;7.892;2023-05-07T11:54:54;4.40;;;0.50;;
9700;SDS011;4889;48.620;7.892;2023-05-07T11:57:21;5.37;;;1.00;;
9700;SDS011;4889;48.620;7.892;2023-05-07T11:59:46;4.97;;;1.30;;
9700;SDS011;4889;48.620;7.892;2023-05-07T12:02:15;4.20;;;0.40;;
9700;SDS011;4889;48.620;7.892;2023-05-07T12:04:40;4.50;;;0.73;;
9700;SDS011;4889;48.620;7.892;2023-05-07T12:07:06;4.70;;;0.60;;
9700;SDS011;4889;48.620;7.892;2023-05-07T12:09:32;4.60;;;0.93;;
9700;SDS011;4889;48.620;7.892;2023-05-07T12:11:58;4.30;;;0.70;;
9700;SDS011;4889;48.620;7.892;2023-05-07T12:14:27;7.07;;;1.57;;
9700;SDS011;4889;48.620;7.892;2023-05-07T12:16:54;6.83;;;1.07;;
9700;SDS011;4889;48.620;7.892;2023-05-07T12:19:19;4.20;;;0.70;;
9700;SDS011;4889;48.620;7.892;2023-05-07T12:21:45;3.90;;;0.30;;
9700;SDS011;4889;48.620;7.892;2023-05-07T12:24:10;4.77;;;0.87;;
9700;SDS011;4889;48.620;7.892;2023-05-07T12:26:39;4.47;;;0.70;;
9700;SDS011;4889;48.620;7.892;2023-05-07T12:29:05;4.50;;;1.27;;
9700;SDS011;4889;48.620;7.892;2023-05-07T12:31:30;4.00;;;0.40;;
9700;SDS011;4889;48.620;7.892;2023-05-07T12:33:56;3.90;;;0.40;;
9700;SDS011;4889;48.620;7.892;2023-05-07T12:36:21;3.80;;;0.30;;
9700;SDS011;4889;48.620;7.892;2023-05-07T12:38:46;3.80;;;0.30;;
9700;SDS011;4889;48.620;7.892;2023-05-07T12:41:14;3.83;;;0.30;;
9700;SDS011;4889;48.620;7.892;2023-05-07T12:43:41;4.57;;;0.70;;
9700;SDS011;4889;48.620;7.892;2023-05-07T12:46:08;22.93;;;0.90;;
9700;SDS011;4889;48.620;7.892;2023-05-07T12:48:35;3.90;;;0.30;;
9700;SDS011;4889;48.620;7.892;2023-05-07T12:51:01;3.93;;;0.30;;
9700;SDS011;4889;48.620;7.892;2023-05-07T12:53:27;3.90;;;0.30;;
9700;SDS011;4889;48.620;7.892;2023-05-07T12:55:54;4.10;;;0.40;;
9700;SDS011;4889;48.620;7.892;2023-05-07T12:58:30;4.60;;;0.43;;
9700;SDS011;4889;48.620;7.892;2023-05-07T13:00:59;4.17;;;0.37;;
9700;SDS011;4889;48.620;7.892;2023-05-07T13:05:51;4.30;;;0.50;;
9700;SDS011;4889;48.620;7.892;2023-05-07T13:08:26;4.30;;;0.40;;
9700;SDS011;4889;48.620;7.892;2023-05-07T13:10:51;4.70;;;0.60;;
9700;SDS011;4889;48.620;7.892;2023-05-07T13:13:18;7.27;;;1.03;;
9700;SDS011;4889;48.620;7.892;2023-05-07T13:15:43;4.40;;;0.30;;
9700;SDS011;4889;48.620;7.892;2023-05-07T13:18:08;4.67;;;0.40;;
9700;SDS011;4889;48.620;7.892;2023-05-07T13:20:36;5.23;;;0.90;;
9700;SDS011;4889;48.620;7.892;2023-05-07T13:23:01;4.30;;;0.30;;
9700;SDS011;4889;48.620;7.892;2023-05-07T13:25:27;4.37;;;0.30;;
9700;SDS011;4889;48.620;7.892;2023-05-07T13:27:52;4.17;;;0.30;;
9700;SDS011;4889;48.620;7.892;2023-05-07T13:30:17;4.20;;;0.30;;
9700;SDS011;4889;48.620;7.892;2023-05-07T13:32:42;4.30;;;0.30;;
9700;SDS011;4889;48.620;7.892;2023-05-07T13:35:08;4.23;;;0.30;;
9700;SDS011;4889;48.620;7.892;2023-05-07T13:37:33;4.20;;;0.30;;
9700;SDS011;4889;48.620;7.892;2023-05-07T13:39:58;4.30;;;0.37;;
9700;SDS011;4889;48.620;7.892;2023-05-07T13:42:24;4.33;;;0.30;;
9700;SDS011;4889;48.620;7.892;2023-05-07T13:44:49;5.43;;;0.70;;
9700;SDS011;4889;48.620;7.892;2023-05-07T13:47:14;4.30;;;0.40;;
9700;SDS011;4889;48.620;7.892;2023-05-07T13:49:40;4.30;;;0.30;;
9700;SDS011;4889;48.620;7.892;2023-05-07T13:52:05;4.43;;;0.50;;
9700;SDS011;4889;48.620;7.892;2023-05-07T13:54:30;4.50;;;0.40;;
9700;SDS011;4889;48.620;7.892;2023-05-07T13:56:55;4.50;;;0.30;;
9700;SDS011;4889;48.620;7.892;2023-05-07T13:59:20;5.00;;;0.40;;
9700;SDS011;4889;48.620;7.892;2023-05-07T14:01:46;5.00;;;0.70;;
9700;SDS011;4889;48.620;7.892;2023-05-07T14:04:12;4.60;;;0.77;;
9700;SDS011;4889;48.620;7.892;2023-05-07T14:06:37;4.47;;;0.30;;
9700;SDS011;4889;48.620;7.892;2023-05-07T14:09:02;5.00;;;1.27;;
9700;SDS011;4889;48.620;7.892;2023-05-07T14:11:27;5.93;;;1.60;;
9700;SDS011;4889;48.620;7.892;2023-05-07T14:13:53;4.00;;;0.47;;
9700;SDS011;4889;48.620;7.892;2023-05-07T14:16:18;3.70;;;0.30;;
9700;SDS011;4889;48.620;7.892;2023-05-07T14:18:43;3.67;;;0.50;;
9700;SDS011;4889;48.620;7.892;2023-05-07T14:21:08;3.50;;;0.40;;
9700;SDS011;4889;48.620;7.892;2023-05-07T14:23:34;5.63;;;0.50;;
9700;SDS011;4889;48.620;7.892;2023-05-07T14:26:00;6.43;;;1.90;;
9700;SDS011;4889;48.620;7.892;2023-05-07T14:28:25;2.90;;;0.30;;
9700;SDS011;4889;48.620;7.892;2023-05-07T14:30:50;2.77;;;0.30;;
9700;SDS011;4889;48.620;7.892;2023-05-07T14:33:15;2.70;;;0.40;;
9700;SDS011;4889;48.620;7.892;2023-05-07T14:35:41;2.40;;;0.30;;
9700;SDS011;4889;48.620;7.892;2023-05-07T14:38:06;2.50;;;0.30;;
9700;SDS011;4889;48.620;7.892;2023-05-07T14:40:31;2.50;;;0.37;;
9700;SDS011;4889;48.620;7.892;2023-05-07T14:42:56;2.50;;;0.40;;
9700;SDS011;4889;48.620;7.892;2023-05-07T14:45:22;2.30;;;0.30;;
9700;SDS011;4889;48.620;7.892;2023-05-07T14:47:48;2.30;;;0.30;;
9700;SDS011;4889;48.620;7.892;2023-05-07T14:50:13;2.30;;;0.30;;
9700;SDS011;4889;48.620;7.892;2023-05-07T14:52:38;2.30;;;0.30;;
9700;SDS011;4889;48.620;7.892;2023-05-07T14:55:04;2.23;;;0.30;;
9700;SDS011;4889;48.620;7.892;2023-05-07T14:57:29;2.33;;;0.30;;
9700;SDS011;4889;48.620;7.892;2023-05-07T14:59:55;2.40;;;0.30;;
9700;SDS011;4889;48.620;7.892;2023-05-07T15:02:20;2.40;;;0.30;;
9700;SDS011;4889;48.620;7.892;2023-05-07T15:04:45;2.50;;;0.40;;
9700;SDS011;4889;48.620;7.892;2023-05-07T15:07:11;2.40;;;0.40;;
9700;SDS011;4889;48.620;7.892;2023-05-07T15:09:37;2.37;;;0.30;;
9700;SDS011;4889;48.620;7.892;2023-05-07T15:12:02;2.30;;;0.30;;
9700;SDS011;4889;48.620;7.892;2023-05-07T15:14:28;2.30;;;0.40;;
9700;SDS011;4889;48.620;7.892;2023-05-07T15:16:54;2.30;;;0.30;;
9700;SDS011;4889;48.620;7.892;2023-05-07T15:19:19;2.30;;;0.30;;
9700;SDS011;4889;48.620;7.892;2023-05-07T15:21:46;2.30;;;0.30;;
9700;SDS011;4889;48.620;7.892;2023-05-07T15:24:12;2.30;;;0.40;;